Terminal Aerodrome Forecast
Issued by NWS Bismarck, ND

Home | Current Version | Previous Version | Text Only | Print | Product List | Glossary Off
Versions: 1 2 3 4 5 6 7 8 9 10 11 12 13 14 15 16 17 18 19 20

000
FTUS43 KBIS 311720
TAFBIS
TAF
KBIS 311720Z 3118/0118 14012KT P6SM BKN080
     FM010200 13009KT P6SM SCT060 BKN080
     FM010600 15008KT P6SM SCT010 BKN040=

USA.gov is the U.S. government's official web portal to all federal, state and local government web resources and services.